ADDS METAR Data INFO
IDs: Format: Raw Decoded Include TAF

Data at: 1539 UTC 25 Feb 2018

KAKQ 251454Z AUTO 21012G20KT 10SM CLR 23/17 A2999 RMK AO2 SLP154 T02280172 55005 TSNO
KAKQ 251354Z AUTO 21009G17KT 170V230 10SM CLR 20/17 A2998 RMK AO2 SLP152 T02000167 TSNO
KAKQ 251254Z AUTO 19007KT 10SM CLR 18/17 A2999 RMK AO2 SLP155 T01830167 TSNO
KAKQ 251154Z AUTO 19008KT 170V230 10SM CLR 18/16 A3000 RMK AO2 SLP158 T01780156 10178 20122 55003 TSNO
KAKQ 251054Z AUTO 20005KT 10SM CLR 17/16 A3000 RMK AO2 SLP157 T01720156 TSNO
KAKQ 250954Z AUTO 18004KT 10SM CLR 16/16 A3000 RMK AO2 SLP158 T01610156 TSNO
KAKQ 250854Z AUTO 00000KT 7SM CLR 12/12 A3001 RMK AO2 SLP161 T01220122 56019 TSNO
KAKQ 250754Z AUTO 00000KT 8SM CLR 13/12 A3003 RMK AO2 SLP167 T01280122 TSNO
KAKQ 250654Z AUTO 11003KT 10SM FEW100 14/13 A3004 RMK AO2 SLP172 T01390133 TSNO
KAKQ 250554Z AUTO 05003KT 10SM FEW095 15/14 A3007 RMK AO2 SLP180 T01500139 10211 20150 55000 TSNO
KAKQ 250454Z AUTO 07003KT 10SM OVC060 17/15 A3007 RMK AO2 SLP181 T01720150 402440100 TSNO
KAKQ 250354Z AUTO 10003KT 10SM OVC060 19/16 A3006 RMK AO2 SLP178 T01890161 TSNO
KAKQ 250254Z AUTO 00000KT 10SM OVC060 18/16 A3007 RMK AO2 SLP181 T01780161 58001 TSNO
KAKQ 250154Z AUTO 00000KT 10SM BKN095 18/16 A3007 RMK AO2 SLP184 T01830156 TSNO
KAKQ 250054Z AUTO 00000KT 10SM FEW110 19/16 A3007 RMK AO2 SLP183 T01890156 TSNO
KAKQ 242354Z AUTO 00000KT 10SM OVC090 21/16 A3007 RMK AO2 SLP183 T02110161 10244 20200 53003 TSNO
KAKQ 242254Z AUTO 00000KT 10SM SCT090 22/16 A3006 RMK AO2 SLP178 T02170161 TSNO
KAKQ 242154Z AUTO 18004KT 10SM OVC090 23/17 A3005 RMK AO2 SLP177 T02330167 TSNO
KAKQ 242054Z AUTO VRB05KT 10SM SCT110 24/16 A3006 RMK AO2 SLP179 T02440161 56015 TSNO
KAKQ 241954Z AUTO 24008KT 10SM BKN043 24/16 A3007 RMK AO2 SLP183 T02390161 TSNO
KAKQ 241854Z AUTO 24012KT 10SM SCT037 SCT050 24/17 A3008 RMK AO2 SLP187 T02440167 TSNO
KAKQ 241754Z AUTO 21013G21KT 10SM SCT033 24/17 A3011 RMK AO2 SLP195 T02390167 10244 20144 58025 TSNO
KAKQ 241654Z AUTO 21010KT 10SM FEW020 22/17 A3014 RMK AO2 SLP207 T02220167 TSNO
KAKQ 241604Z AUTO 23010KT 10SM SCT016 21/17 A3017 RMK AO2 T02060167 TSNO
KAKQ 241554Z AUTO 21007KT 10SM BKN014 21/17 A3017 RMK AO2 SLP217 T02110172 TSNO
KAKQ 241542Z AUTO 22011KT 10SM BKN012 19/17 A3017 RMK AO2 T01940167 TSNO
KAKQ 241523Z AUTO 25009G16KT 10SM OVC008 19/17 A3018 RMK AO2 CIG 007V012 T01940172 TSNO
KAKQ 241454Z AUTO 21008KT 10SM OVC006 18/17 A3018 RMK AO2 CIG 005V011 SLP220 T01780167 58003 TSNO
KAKQ 241420Z AUTO 22005KT 7SM OVC005 17/17 A3019 RMK AO2 T01670167 TSNO
KAKQ 241354Z AUTO 20007KT 5SM BR OVC004 16/16 A3019 RMK AO2 SLP223 T01610161 TSNO
KAKQ 241319Z AUTO 20007KT 3SM BR OVC003 16/16 A3019 RMK AO2 T01560156 TSNO
KAKQ 241302Z AUTO 20005KT 2SM BR OVC002 16/16 A3019 RMK AO2 T01560156 TSNO
KAKQ 241254Z AUTO 21007KT 1 3/4SM BR OVC002 16/16 A3019 RMK AO2 SLP224 T01560156 TSNO
KAKQ 241233Z AUTO 20006KT 1SM BR OVC002 15/15 A3019 RMK AO2 T01500150 TSNO
KAKQ 241154Z AUTO 21005KT 1/2SM FG VV002 14/14 A3019 RMK AO2 SLP223 T01440144 10144 20100 56008 TSNO
KAKQ 241054Z AUTO 20005KT 1/2SM FG VV002 14/14 A3019 RMK AO2 SLP225 T01390139 TSNO
KAKQ 241032Z AUTO 21007KT 1/2SM FG VV002 14/14 A3020 RMK AO2 T01390139 TSNO
KAKQ 240954Z AUTO 23005KT 1/4SM FG VV002 13/13 A3020 RMK AO2 SLP227 T01330133 TSNO
KAKQ 240854Z AUTO 20004KT 1/4SM FG VV002 12/12 A3021 RMK AO2 SLP231 T01170117 58018 TSNO
KAKQ 240754Z AUTO VRB03KT 1/4SM FG VV002 11/11 A3023 RMK AO2 SLP237 T01060106 TSNO
KAKQ 240720Z AUTO 00000KT 1/4SM FG VV002 11/11 A3023 RMK AO2 T01060106 TSNO
KAKQ 240654Z AUTO 00000KT 1/2SM FG VV002 10/10 A3025 RMK AO2 SLP245 T01000100 TSNO
KAKQ 240603Z AUTO 00000KT 1/2SM FG VV003 10/10 A3026 RMK AO2 T01000100 TSNO
KAKQ 240554Z AUTO 00000KT 1/4SM FG VV003 10/10 A3026 RMK AO2 SLP249 T01000100 10111 20100 56021 TSNO
KAKQ 240454Z AUTO 00000KT 1/4SM FG VV002 10/10 A3028 RMK AO2 SLP256 T01000100 401170067 TSNO
KAKQ 240354Z AUTO 00000KT 1/4SM FG VV002 11/11 A3030 RMK AO2 SLP263 T01060106 TSNO